sensor_id;sensor_type;location;lat;lon;timestamp;pressure;altitude;pressure_sealevel;temperature;humidity
76732;BME280;65656;51.130;13.658;2023-04-24T00:00:58;98101.31;;;11.12;97.49
76732;BME280;65656;51.130;13.658;2023-04-24T00:05:01;98098.56;;;11.18;97.17
76732;BME280;65656;51.130;13.658;2023-04-24T00:09:03;98111.16;;;11.19;96.93
76732;BME280;65656;51.130;13.658;2023-04-24T00:13:04;98113.34;;;11.22;96.71
76732;BME280;65656;51.130;13.658;2023-04-24T00:17:06;98120.41;;;11.28;96.36
76732;BME280;65656;51.130;13.658;2023-04-24T00:21:08;98122.38;;;11.22;97.15
76732;BME280;65656;51.130;13.658;2023-04-24T00:25:10;98111.75;;;11.15;97.11
76732;BME280;65656;51.130;13.658;2023-04-24T00:29:11;98113.19;;;11.03;97.78
76732;BME280;65656;51.130;13.658;2023-04-24T00:33:13;98108.81;;;11.02;97.66
76732;BME280;65656;51.130;13.658;2023-04-24T00:37:16;98113.47;;;11.01;97.90
76732;BME280;65656;51.130;13.658;2023-04-24T00:41:17;98117.03;;;11.02;97.85
76732;BME280;65656;51.130;13.658;2023-04-24T00:45:19;98116.38;;;10.76;99.48
76732;BME280;65656;51.130;13.658;2023-04-24T00:49:21;98108.47;;;10.69;100.00
76732;BME280;65656;51.130;13.658;2023-04-24T00:53:24;98114.97;;;10.83;99.51
76732;BME280;65656;51.130;13.658;2023-04-24T00:57:26;98111.38;;;10.88;99.21
76732;BME280;65656;51.130;13.658;2023-04-24T01:01:27;98108.38;;;10.90;98.63
76732;BME280;65656;51.130;13.658;2023-04-24T01:05:29;98102.31;;;10.93;99.04
76732;BME280;65656;51.130;13.658;2023-04-24T01:09:32;98105.88;;;10.93;98.41
76732;BME280;65656;51.130;13.658;2023-04-24T01:13:34;98102.31;;;10.93;98.40
76732;BME280;65656;51.130;13.658;2023-04-24T01:17:35;98105.88;;;10.88;98.40
76732;BME280;65656;51.130;13.658;2023-04-24T01:21:37;98100.97;;;10.90;98.01
76732;BME280;65656;51.130;13.658;2023-04-24T01:25:40;98095.44;;;10.95;98.06
76732;BME280;65656;51.130;13.658;2023-04-24T01:29:42;98094.78;;;11.08;96.61
76732;BME280;65656;51.130;13.658;2023-04-24T01:33:44;98101.91;;;11.09;96.12
76732;BME280;65656;51.130;13.658;2023-04-24T01:37:45;98100.50;;;11.12;95.94
76732;BME280;65656;51.130;13.658;2023-04-24T01:41:48;98104.03;;;11.18;95.50
76732;BME280;65656;51.130;13.658;2023-04-24T01:45:50;98097.50;;;11.13;95.64
76732;BME280;65656;51.130;13.658;2023-04-24T01:49:51;98102.38;;;11.22;95.11
76732;BME280;65656;51.130;13.658;2023-04-24T01:53:53;98099.03;;;11.25;94.43
76732;BME280;65656;51.130;13.658;2023-04-24T01:57:56;98094.66;;;11.29;94.40
76732;BME280;65656;51.130;13.658;2023-04-24T02:01:58;98098.56;;;11.18;94.66
76732;BME280;65656;51.130;13.658;2023-04-24T02:05:59;98093.09;;;11.12;95.89
76732;BME280;65656;51.130;13.658;2023-04-24T02:10:00;98094.22;;;11.11;94.73
76732;BME280;65656;51.130;13.658;2023-04-24T02:14:03;98093.16;;;11.07;95.40
76732;BME280;65656;51.130;13.658;2023-04-24T02:18:05;98104.44;;;11.01;95.69
76732;BME280;65656;51.130;13.658;2023-04-24T02:22:07;98098.00;;;11.21;94.60
76732;BME280;65656;51.130;13.658;2023-04-24T02:26:08;98102.09;;;11.23;94.79
76732;BME280;65656;51.130;13.658;2023-04-24T02:30:12;98091.13;;;11.23;95.20
76732;BME280;65656;51.130;13.658;2023-04-24T02:34:13;98099.13;;;11.14;95.46
76732;BME280;65656;51.130;13.658;2023-04-24T02:38:15;98101.31;;;11.12;94.69
76732;BME280;65656;51.130;13.658;2023-04-24T02:42:16;98100.28;;;11.08;95.56
76732;BME280;65656;51.130;13.658;2023-04-24T02:46:19;98098.94;;;11.06;95.21
76732;BME280;65656;51.130;13.658;2023-04-24T02:50:21;98086.38;;;11.00;94.94
76732;BME280;65656;51.130;13.658;2023-04-24T02:54:22;98093.25;;;10.97;94.92
76732;BME280;65656;51.130;13.658;2023-04-24T02:58:24;98089.91;;;11.00;94.48
76732;BME280;65656;51.130;13.658;2023-04-24T03:02:27;98087.69;;;11.07;93.43
76732;BME280;65656;51.130;13.658;2023-04-24T03:06:28;98081.66;;;11.05;93.30
76732;BME280;65656;51.130;13.658;2023-04-24T03:10:30;98082.50;;;11.01;93.47
76732;BME280;65656;51.130;13.658;2023-04-24T03:14:31;98081.94;;;11.04;93.15
76732;BME280;65656;51.130;13.658;2023-04-24T03:18:34;98089.66;;;10.97;93.82
76732;BME280;65656;51.130;13.658;2023-04-24T03:22:36;98083.03;;;11.03;92.73
76732;BME280;65656;51.130;13.658;2023-04-24T03:26:37;98084.47;;;10.95;93.36
76732;BME280;65656;51.130;13.658;2023-04-24T03:30:39;98080.06;;;10.99;92.52
76732;BME280;65656;51.130;13.658;2023-04-24T03:34:41;98080.56;;;11.06;92.40
76732;BME280;65656;51.130;13.658;2023-04-24T03:38:43;98093.72;;;11.04;92.32
76732;BME280;65656;51.130;13.658;2023-04-24T03:42:44;98086.59;;;11.03;92.11
76732;BME280;65656;51.130;13.658;2023-04-24T03:46:46;98106.28;;;11.10;91.66
76732;BME280;65656;51.130;13.658;2023-04-24T03:50:49;98095.09;;;11.07;91.48
76732;BME280;65656;51.130;13.658;2023-04-24T03:54:50;98100.28;;;11.08;91.30
76732;BME280;65656;51.130;13.658;2023-04-24T03:58:51;98111.25;;;11.08;91.72
76732;BME280;65656;51.130;13.658;2023-04-24T04:02:53;98112.34;;;11.07;91.23
76732;BME280;65656;51.130;13.658;2023-04-24T04:06:56;98124.97;;;11.03;90.99
76732;BME280;65656;51.130;13.658;2023-04-24T04:10:57;98115.50;;;11.25;89.34
76732;BME280;65656;51.130;13.658;2023-04-24T04:14:59;98124.31;;;11.22;89.26
76732;BME280;65656;51.130;13.658;2023-04-24T04:19:00;98118.84;;;11.16;89.07
76732;BME280;65656;51.130;13.658;2023-04-24T04:23:03;98120.00;;;11.10;89.52
76732;BME280;65656;51.130;13.658;2023-04-24T04:27:05;98115.91;;;11.08;89.82
76732;BME280;65656;51.130;13.658;2023-04-24T04:31:06;98124.38;;;11.11;89.66
76732;BME280;65656;51.130;13.658;2023-04-24T04:35:08;98121.69;;;11.01;89.51
76732;BME280;65656;51.130;13.658;2023-04-24T04:39:11;98123.03;;;11.09;88.45
76732;BME280;65656;51.130;13.658;2023-04-24T04:43:12;98122.13;;;11.19;88.46
76732;BME280;65656;51.130;13.658;2023-04-24T04:47:14;98127.06;;;11.16;88.17
76732;BME280;65656;51.130;13.658;2023-04-24T04:51:15;98130.41;;;11.13;88.34
76732;BME280;65656;51.130;13.658;2023-04-24T04:55:18;98122.69;;;11.15;87.33
76732;BME280;65656;51.130;13.658;2023-04-24T04:59:19;98124.34;;;11.16;87.70
76732;BME280;65656;51.130;13.658;2023-04-24T05:03:21;98137.66;;;11.28;87.02
76732;BME280;65656;51.130;13.658;2023-04-24T05:07:22;98141.78;;;11.31;86.13
76732;BME280;65656;51.130;13.658;2023-04-24T05:11:25;98139.56;;;11.33;87.13
76732;BME280;65656;51.130;13.658;2023-04-24T05:15:27;98137.34;;;11.35;86.45
76732;BME280;65656;51.130;13.658;2023-04-24T05:19:28;98142.78;;;11.45;86.24
76732;BME280;65656;51.130;13.658;2023-04-24T05:23:30;98149.81;;;11.51;86.32
76732;BME280;65656;51.130;13.658;2023-04-24T05:27:32;98152.00;;;11.54;86.62
76732;BME280;65656;51.130;13.658;2023-04-24T05:31:34;98137.69;;;11.62;85.34
76732;BME280;65656;51.130;13.658;2023-04-24T05:35:35;98144.16;;;11.71;85.73
76732;BME280;65656;51.130;13.658;2023-04-24T05:39:37;98142.41;;;11.86;85.57
76732;BME280;65656;51.130;13.658;2023-04-24T05:43:40;98142.09;;;11.92;84.78
76732;BME280;65656;51.130;13.658;2023-04-24T05:47:41;98146.06;;;12.05;85.06
76732;BME280;65656;51.130;13.658;2023-04-24T05:51:43;98148.63;;;12.20;83.97
76732;BME280;65656;51.130;13.658;2023-04-24T05:55:45;98143.56;;;12.33;83.04
76732;BME280;65656;51.130;13.658;2023-04-24T05:59:47;98146.44;;;12.46;83.70
76732;BME280;65656;51.130;13.658;2023-04-24T06:03:49;98147.63;;;12.59;81.49
76732;BME280;65656;51.130;13.658;2023-04-24T06:07:51;98154.94;;;12.45;82.22
76732;BME280;65656;51.130;13.658;2023-04-24T06:11:52;98148.75;;;12.58;80.82
76732;BME280;65656;51.130;13.658;2023-04-24T06:15:55;98154.22;;;12.58;79.99
76732;BME280;65656;51.130;13.658;2023-04-24T06:19:57;98151.56;;;12.53;81.45
76732;BME280;65656;51.130;13.658;2023-04-24T06:23:58;98155.31;;;12.62;79.50
76732;BME280;65656;51.130;13.658;2023-04-24T06:28:00;98160.88;;;12.76;80.25
76732;BME280;65656;51.130;13.658;2023-04-24T06:32:03;98154.06;;;12.92;78.03
76732;BME280;65656;51.130;13.658;2023-04-24T06:36:05;98161.66;;;13.00;77.35
76732;BME280;65656;51.130;13.658;2023-04-24T06:40:07;98161.41;;;12.97;78.04
76732;BME280;65656;51.130;13.658;2023-04-24T06:44:09;98163.75;;;13.08;77.95
76732;BME280;65656;51.130;13.658;2023-04-24T06:48:12;98161.66;;;13.19;77.30
76732;BME280;65656;51.130;13.658;2023-04-24T06:52:13;98158.56;;;13.26;77.06
76732;BME280;65656;51.130;13.658;2023-04-24T06:56:15;98144.78;;;13.45;76.74
76732;BME280;65656;51.130;13.658;2023-04-24T07:00:17;98151.50;;;13.71;75.78
76732;BME280;65656;51.130;13.658;2023-04-24T07:04:19;98147.41;;;14.01;75.11
76732;BME280;65656;51.130;13.658;2023-04-24T07:08:21;98154.25;;;14.31;75.26
76732;BME280;65656;51.130;13.658;2023-04-24T07:12:23;98164.47;;;14.44;73.51
76732;BME280;65656;51.130;13.658;2023-04-24T07:16:24;98166.81;;;14.37;72.29
76732;BME280;65656;51.130;13.658;2023-04-24T07:20:27;98163.97;;;14.42;71.60
76732;BME280;65656;51.130;13.658;2023-04-24T07:24:29;98165.69;;;14.38;71.30
76732;BME280;65656;51.130;13.658;2023-04-24T07:28:31;98170.91;;;14.40;72.68
76732;BME280;65656;51.130;13.658;2023-04-24T07:32:32;98166.38;;;14.30;71.37
76732;BME280;65656;51.130;13.658;2023-04-24T07:36:35;98170.38;;;14.38;71.76
76732;BME280;65656;51.130;13.658;2023-04-24T07:40:37;98166.00;;;14.37;71.29
76732;BME280;65656;51.130;13.658;2023-04-24T07:44:38;98175.84;;;14.57;71.97
76732;BME280;65656;51.130;13.658;2023-04-24T07:48:39;98178.06;;;14.55;70.20
76732;BME280;65656;51.130;13.658;2023-04-24T07:52:42;98172.16;;;14.47;70.64
76732;BME280;65656;51.130;13.658;2023-04-24T07:56:44;98174.00;;;14.80;70.48
76732;BME280;65656;51.130;13.658;2023-04-24T08:00:45;98181.53;;;14.74;69.76
76732;BME280;65656;51.130;13.658;2023-04-24T08:04:47;98180.19;;;14.99;70.43
76732;BME280;65656;51.130;13.658;2023-04-24T08:08:50;98176.59;;;14.98;68.30
76732;BME280;65656;51.130;13.658;2023-04-24T08:12:51;98180.66;;;15.15;67.32
76732;BME280;65656;51.130;13.658;2023-04-24T08:16:53;98190.94;;;14.73;67.60
76732;BME280;65656;51.130;13.658;2023-04-24T08:20:55;98191.25;;;14.58;68.76
76732;BME280;65656;51.130;13.658;2023-04-24T08:24:59;98196.31;;;15.05;68.00
76732;BME280;65656;51.130;13.658;2023-04-24T08:29:01;98203.97;;;15.09;67.42
76732;BME280;65656;51.130;13.658;2023-04-24T08:33:02;98203.75;;;15.19;68.19
76732;BME280;65656;51.130;13.658;2023-04-24T08:37:04;98199.56;;;15.08;69.85
76732;BME280;65656;51.130;13.658;2023-04-24T08:41:07;98196.59;;;15.18;67.81
76732;BME280;65656;51.130;13.658;2023-04-24T08:45:09;98196.75;;;14.58;66.99
76732;BME280;65656;51.130;13.658;2023-04-24T08:49:12;98206.22;;;15.07;67.71
76732;BME280;65656;51.130;13.658;2023-04-24T08:53:14;98205.41;;;14.92;66.22
76732;BME280;65656;51.130;13.658;2023-04-24T08:57:18;98209.81;;;14.93;65.19
76732;BME280;65656;51.130;13.658;2023-04-24T09:01:20;98199.09;;;14.78;64.69
76732;BME280;65656;51.130;13.658;2023-04-24T09:05:22;98204.81;;;14.95;65.22
76732;BME280;65656;51.130;13.658;2023-04-24T09:09:29;98197.28;;;14.87;64.82
76732;BME280;65656;51.130;13.658;2023-04-24T09:13:33;98191.53;;;14.84;63.01
76732;BME280;65656;51.130;13.658;2023-04-24T09:17:34;98199.47;;;15.13;62.98
76732;BME280;65656;51.130;13.658;2023-04-24T09:21:36;98195.69;;;15.09;64.31
76732;BME280;65656;51.130;13.658;2023-04-24T09:25:37;98196.81;;;15.08;63.91
76732;BME280;65656;51.130;13.658;2023-04-24T09:29:53;98201.50;;;15.21;63.09
76732;BME280;65656;51.130;13.658;2023-04-24T09:33:56;98204.59;;;15.05;63.47
76732;BME280;65656;51.130;13.658;2023-04-24T09:38:00;98200.19;;;15.04;63.62
76732;BME280;65656;51.130;13.658;2023-04-24T09:42:02;98209.69;;;15.12;62.99
76732;BME280;65656;51.130;13.658;2023-04-24T09:46:07;98202.94;;;15.18;63.09
76732;BME280;65656;51.130;13.658;2023-04-24T09:50:10;98204.69;;;15.00;63.66
76732;BME280;65656;51.130;13.658;2023-04-24T09:54:15;98197.56;;;14.86;62.87
76732;BME280;65656;51.130;13.658;2023-04-24T09:58:17;98196.16;;;15.24;61.90
76732;BME280;65656;51.130;13.658;2023-04-24T10:02:20;98192.22;;;15.39;62.79
76732;BME280;65656;51.130;13.658;2023-04-24T10:06:22;98186.81;;;15.12;61.80
76732;BME280;65656;51.130;13.658;2023-04-24T10:10:23;98192.91;;;15.58;61.07
76732;BME280;65656;51.130;13.658;2023-04-24T10:14:25;98192.41;;;15.56;60.31
76732;BME280;65656;51.130;13.658;2023-04-24T10:18:29;98189.91;;;14.96;62.67
76732;BME280;65656;51.130;13.658;2023-04-24T10:22:32;98182.53;;;14.92;62.17
76732;BME280;65656;51.130;13.658;2023-04-24T10:26:34;98182.41;;;15.47;62.14
76732;BME280;65656;51.130;13.658;2023-04-24T10:30:36;98189.88;;;16.13;60.60
76732;BME280;65656;51.130;13.658;2023-04-24T10:34:39;98186.88;;;16.01;58.05
76732;BME280;65656;51.130;13.658;2023-04-24T10:38:42;98186.50;;;15.94;55.76
76732;BME280;65656;51.130;13.658;2023-04-24T10:42:51;98185.03;;;15.52;57.26
76732;BME280;65656;51.130;13.658;2023-04-24T10:46:54;98185.16;;;15.83;56.73
76732;BME280;65656;51.130;13.658;2023-04-24T10:50:58;98182.09;;;16.15;54.94
76732;BME280;65656;51.130;13.658;2023-04-24T10:55:01;98186.84;;;16.24;54.80
76732;BME280;65656;51.130;13.658;2023-04-24T10:59:07;98186.31;;;16.84;54.76
76732;BME280;65656;51.130;13.658;2023-04-24T11:03:23;98181.28;;;16.46;55.07
76732;BME280;65656;51.130;13.658;2023-04-24T11:07:26;98179.34;;;15.93;55.21
76732;BME280;65656;51.130;13.658;2023-04-24T11:11:29;98177.66;;;15.25;57.33
76732;BME280;65656;51.130;13.658;2023-04-24T11:15:31;98183.28;;;15.56;57.71
76732;BME280;65656;51.130;13.658;2023-04-24T11:19:33;98179.09;;;15.58;57.35
76732;BME280;65656;51.130;13.658;2023-04-24T11:23:37;98188.94;;;15.51;57.21
76732;BME280;65656;51.130;13.658;2023-04-24T11:27:40;98194.03;;;15.57;57.46
76732;BME280;65656;51.130;13.658;2023-04-24T11:31:44;98194.44;;;15.65;59.00
76732;BME280;65656;51.130;13.658;2023-04-24T11:35:47;98194.75;;;15.27;60.43
76732;BME280;65656;51.130;13.658;2023-04-24T11:39:52;98186.94;;;15.43;58.17
76732;BME280;65656;51.130;13.658;2023-04-24T11:43:54;98193.81;;;15.90;56.15
76732;BME280;65656;51.130;13.658;2023-04-24T11:47:58;98190.22;;;15.90;58.53
76732;BME280;65656;51.130;13.658;2023-04-24T11:52:00;98187.13;;;15.32;59.18
76732;BME280;65656;51.130;13.658;2023-04-24T11:56:04;98196.22;;;14.97;60.02
76732;BME280;65656;51.130;13.658;2023-04-24T12:00:06;98193.69;;;14.45;61.01
76732;BME280;65656;51.130;13.658;2023-04-24T12:04:09;98201.69;;;14.28;61.36
76732;BME280;65656;51.130;13.658;2023-04-24T12:08:11;98201.69;;;14.28;61.59
76732;BME280;65656;51.130;13.658;2023-04-24T12:12:16;98185.69;;;14.99;53.87
76732;BME280;65656;51.130;13.658;2023-04-24T12:16:18;98197.19;;;15.87;51.92
76732;BME280;65656;51.130;13.658;2023-04-24T12:20:24;98189.09;;;16.53;48.09
76732;BME280;65656;51.130;13.658;2023-04-24T12:24:26;98186.31;;;16.13;47.47
76732;BME280;65656;51.130;13.658;2023-04-24T12:28:36;98185.47;;;16.35;47.48
76732;BME280;65656;51.130;13.658;2023-04-24T12:32:41;98194.94;;;16.82;45.89
76732;BME280;65656;51.130;13.658;2023-04-24T12:36:43;98199.81;;;15.92;48.05
76732;BME280;65656;51.130;13.658;2023-04-24T12:40:44;98204.03;;;15.17;49.27
76732;BME280;65656;51.130;13.658;2023-04-24T12:44:47;98200.13;;;14.82;49.38
76732;BME280;65656;51.130;13.658;2023-04-24T12:48:49;98220.56;;;14.81;50.36
76732;BME280;65656;51.130;13.658;2023-04-24T12:52:50;98222.84;;;15.29;49.07
76732;BME280;65656;51.130;13.658;2023-04-24T12:56:51;98207.00;;;16.55;44.89
76732;BME280;65656;51.130;13.658;2023-04-24T13:00:54;98209.25;;;17.85;41.19
76732;BME280;65656;51.130;13.658;2023-04-24T13:04:57;98193.41;;;18.67;38.39
76732;BME280;65656;51.130;13.658;2023-04-24T13:08:59;98198.50;;;18.94;37.16
76732;BME280;65656;51.130;13.658;2023-04-24T13:13:00;98193.22;;;19.52;36.45
76732;BME280;65656;51.130;13.658;2023-04-24T13:17:04;98200.84;;;16.98;42.72
76732;BME280;65656;51.130;13.658;2023-04-24T13:21:05;98189.19;;;17.96;40.25
76732;BME280;65656;51.130;13.658;2023-04-24T13:25:07;98193.63;;;18.44;38.08
76732;BME280;65656;51.130;13.658;2023-04-24T13:29:09;98185.75;;;20.51;35.77
76732;BME280;65656;51.130;13.658;2023-04-24T13:33:12;98186.59;;;18.47;38.09
76732;BME280;65656;51.130;13.658;2023-04-24T13:37:13;98187.38;;;19.44;34.31
76732;BME280;65656;51.130;13.658;2023-04-24T13:41:15;98182.00;;;19.69;34.36
76732;BME280;65656;51.130;13.658;2023-04-24T13:45:16;98196.25;;;16.93;38.09
76732;BME280;65656;51.130;13.658;2023-04-24T13:49:27;98190.59;;;15.38;42.21
76732;BME280;65656;51.130;13.658;2023-04-24T13:53:29;98195.03;;;16.68;40.51
76732;BME280;65656;51.130;13.658;2023-04-24T13:57:30;98183.06;;;18.37;35.14
76732;BME280;65656;51.130;13.658;2023-04-24T14:01:32;98182.00;;;18.51;34.57
76732;BME280;65656;51.130;13.658;2023-04-24T14:05:35;98174.72;;;18.84;34.50
76732;BME280;65656;51.130;13.658;2023-04-24T14:09:39;98186.19;;;19.75;32.77
76732;BME280;65656;51.130;13.658;2023-04-24T14:13:41;98198.47;;;17.57;35.51
76732;BME280;65656;51.130;13.658;2023-04-24T14:17:43;98183.91;;;16.91;37.52
76732;BME280;65656;51.130;13.658;2023-04-24T14:21:46;98186.25;;;17.93;37.41
76732;BME280;65656;51.130;13.658;2023-04-24T14:25:47;98178.03;;;19.07;35.24
76732;BME280;65656;51.130;13.658;2023-04-24T14:29:49;98171.25;;;20.00;33.45
76732;BME280;65656;51.130;13.658;2023-04-24T14:33:50;98171.53;;;18.09;35.88
76732;BME280;65656;51.130;13.658;2023-04-24T14:37:54;98170.00;;;19.06;36.56
76732;BME280;65656;51.130;13.658;2023-04-24T14:41:55;98159.41;;;19.49;32.59
76732;BME280;65656;51.130;13.658;2023-04-24T14:45:57;98177.78;;;18.53;35.08
76732;BME280;65656;51.130;13.658;2023-04-24T14:49:58;98169.13;;;18.08;35.69
76732;BME280;65656;51.130;13.658;2023-04-24T14:54:01;98182.56;;;16.88;38.05
76732;BME280;65656;51.130;13.658;2023-04-24T14:58:03;98184.38;;;16.84;38.77
76732;BME280;65656;51.130;13.658;2023-04-24T15:02:06;98190.16;;;16.03;40.83
76732;BME280;65656;51.130;13.658;2023-04-24T15:06:17;98202.75;;;16.18;40.19
76732;BME280;65656;51.130;13.658;2023-04-24T15:10:20;98189.81;;;16.27;39.87
76732;BME280;65656;51.130;13.658;2023-04-24T15:14:21;98202.81;;;15.59;41.36
76732;BME280;65656;51.130;13.658;2023-04-24T15:18:24;98207.56;;;15.45;41.34
76732;BME280;65656;51.130;13.658;2023-04-24T15:22:26;98203.34;;;15.12;41.25
76732;BME280;65656;51.130;13.658;2023-04-24T15:26:29;98207.78;;;14.85;42.56
76732;BME280;65656;51.130;13.658;2023-04-24T15:30:31;98216.66;;;14.55;42.35
76732;BME280;65656;51.130;13.658;2023-04-24T15:34:32;98215.97;;;14.30;43.16
76732;BME280;65656;51.130;13.658;2023-04-24T15:38:34;98221.34;;;14.54;43.01
76732;BME280;65656;51.130;13.658;2023-04-24T15:42:36;98225.66;;;14.74;43.08
76732;BME280;65656;51.130;13.658;2023-04-24T15:46:38;98222.38;;;14.58;44.30
76732;BME280;65656;51.130;13.658;2023-04-24T15:50:40;98226.78;;;14.13;44.54
76732;BME280;65656;51.130;13.658;2023-04-24T15:54:41;98237.41;;;14.19;45.58
76732;BME280;65656;51.130;13.658;2023-04-24T15:58:44;98235.94;;;14.08;45.37
76732;BME280;65656;51.130;13.658;2023-04-24T16:02:46;98232.72;;;14.20;45.76
76732;BME280;65656;51.130;13.658;2023-04-24T16:06:48;98232.91;;;14.10;45.75
76732;BME280;65656;51.130;13.658;2023-04-24T16:10:49;98236.97;;;14.12;47.08
76732;BME280;65656;51.130;13.658;2023-04-24T16:14:52;98244.69;;;13.97;46.16
76732;BME280;65656;51.130;13.658;2023-04-24T16:18:54;98244.16;;;13.94;46.00
76732;BME280;65656;51.130;13.658;2023-04-24T16:22:55;98253.56;;;13.93;47.02
76732;BME280;65656;51.130;13.658;2023-04-24T16:26:57;98259.06;;;13.75;46.99
76732;BME280;65656;51.130;13.658;2023-04-24T16:31:00;98266.06;;;13.67;47.57
76732;BME280;65656;51.130;13.658;2023-04-24T16:35:01;98274.31;;;13.67;47.65
76732;BME280;65656;51.130;13.658;2023-04-24T16:39:03;98279.47;;;13.55;48.46
76732;BME280;65656;51.130;13.658;2023-04-24T16:43:05;98286.06;;;13.54;49.45
76732;BME280;65656;51.130;13.658;2023-04-24T16:47:08;98283.91;;;13.32;49.34
76732;BME280;65656;51.130;13.658;2023-04-24T16:51:11;98284.59;;;13.19;50.41
76732;BME280;65656;51.130;13.658;2023-04-24T16:55:12;98287.88;;;12.97;50.12
76732;BME280;65656;51.130;13.658;2023-04-24T16:59:14;98311.19;;;13.04;51.26
76732;BME280;65656;51.130;13.658;2023-04-24T17:03:17;98289.31;;;12.94;51.18
76732;BME280;65656;51.130;13.658;2023-04-24T17:07:18;98288.25;;;12.66;51.82
76732;BME280;65656;51.130;13.658;2023-04-24T17:11:20;98299.94;;;12.53;52.95
76732;BME280;65656;51.130;13.658;2023-04-24T17:15:21;98304.66;;;12.47;53.41
76732;BME280;65656;51.130;13.658;2023-04-24T17:19:24;98310.16;;;12.47;53.68
76732;BME280;65656;51.130;13.658;2023-04-24T17:23:26;98314.88;;;12.42;54.57
76732;BME280;65656;51.130;13.658;2023-04-24T17:27:27;98327.06;;;12.31;55.03
76732;BME280;65656;51.130;13.658;2023-04-24T17:31:29;98337.50;;;12.28;55.29
76732;BME280;65656;51.130;13.658;2023-04-24T17:35:31;98340.81;;;12.25;55.21
76732;BME280;65656;51.130;13.658;2023-04-24T17:39:33;98353.00;;;12.14;54.67
76732;BME280;65656;51.130;13.658;2023-04-24T17:43:35;98356.91;;;12.08;54.69
76732;BME280;65656;51.130;13.658;2023-04-24T17:47:36;98366.78;;;12.09;54.49
76732;BME280;65656;51.130;13.658;2023-04-24T17:51:39;98367.25;;;11.72;55.37
76732;BME280;65656;51.130;13.658;2023-04-24T17:55:41;98387.97;;;11.44;55.62
76732;BME280;65656;51.130;13.658;2023-04-24T17:59:42;98402.03;;;11.22;56.37
76732;BME280;65656;51.130;13.658;2023-04-24T18:03:44;98389.72;;;11.04;56.90
76732;BME280;65656;51.130;13.658;2023-04-24T18:07:47;98402.13;;;10.81;58.02
76732;BME280;65656;51.130;13.658;2023-04-24T18:11:48;98412.56;;;10.64;58.58
76732;BME280;65656;51.130;13.658;2023-04-24T18:15:50;98418.31;;;10.57;58.11
76732;BME280;65656;51.130;13.658;2023-04-24T18:19:51;98422.97;;;10.42;59.54
76732;BME280;65656;51.130;13.658;2023-04-24T18:23:54;98425.44;;;10.38;58.22
76732;BME280;65656;51.130;13.658;2023-04-24T18:27:56;98442.38;;;10.25;57.80
76732;BME280;65656;51.130;13.658;2023-04-24T18:31:57;98442.63;;;10.13;59.09
76732;BME280;65656;51.130;13.658;2023-04-24T18:35:59;98440.16;;;10.07;59.04
76732;BME280;65656;51.130;13.658;2023-04-24T18:40:02;98467.50;;;9.96;58.65
76732;BME280;65656;51.130;13.658;2023-04-24T18:44:03;98460.34;;;9.85;59.68
76732;BME280;65656;51.130;13.658;2023-04-24T18:48:05;98469.06;;;9.77;60.31
76732;BME280;65656;51.130;13.658;2023-04-24T18:52:07;98466.88;;;9.79;59.78
76732;BME280;65656;51.130;13.658;2023-04-24T18:56:10;98470.13;;;9.71;60.08
76732;BME280;65656;51.130;13.658;2023-04-24T19:00:12;98475.09;;;9.74;60.52
76732;BME280;65656;51.130;13.658;2023-04-24T19:04:14;98484.03;;;9.59;61.84
76732;BME280;65656;51.130;13.658;2023-04-24T19:08:15;98496.00;;;9.48;62.21
76732;BME280;65656;51.130;13.658;2023-04-24T19:12:18;98494.63;;;9.45;62.28
76732;BME280;65656;51.130;13.658;2023-04-24T19:16:23;98496.88;;;9.54;61.20
76732;BME280;65656;51.130;13.658;2023-04-24T19:20:25;98502.75;;;9.30;62.42
76732;BME280;65656;51.130;13.658;2023-04-24T19:24:26;98502.69;;;9.20;63.85
76732;BME280;65656;51.130;13.658;2023-04-24T19:28:29;98505.34;;;9.10;64.07
76732;BME280;65656;51.130;13.658;2023-04-24T19:32:31;98509.66;;;9.01;65.43
76732;BME280;65656;51.130;13.658;2023-04-24T19:36:32;98507.94;;;8.89;65.05
76732;BME280;65656;51.130;13.658;2023-04-24T19:40:34;98509.59;;;8.90;65.75
76732;BME280;65656;51.130;13.658;2023-04-24T19:44:37;98513.66;;;8.88;65.68
76732;BME280;65656;51.130;13.658;2023-04-24T19:48:38;98502.97;;;8.86;66.31
76732;BME280;65656;51.130;13.658;2023-04-24T19:52:40;98504.94;;;8.91;66.35
76732;BME280;65656;51.130;13.658;2023-04-24T19:56:41;98497.50;;;8.86;67.04
76732;BME280;65656;51.130;13.658;2023-04-24T20:00:44;98505.50;;;8.93;65.92
76732;BME280;65656;51.130;13.658;2023-04-24T20:04:46;98506.28;;;8.88;67.48
76732;BME280;65656;51.130;13.658;2023-04-24T20:08:47;98506.91;;;8.96;67.70
76732;BME280;65656;51.130;13.658;2023-04-24T20:12:49;98519.16;;;8.93;67.76
76732;BME280;65656;51.130;13.658;2023-04-24T20:16:52;98517.22;;;8.88;67.65
76732;BME280;65656;51.130;13.658;2023-04-24T20:20:54;98519.38;;;8.86;68.86
76732;BME280;65656;51.130;13.658;2023-04-24T20:24:56;98513.78;;;8.71;68.45
76732;BME280;65656;51.130;13.658;2023-04-24T20:28:57;98517.09;;;8.73;69.02
76732;BME280;65656;51.130;13.658;2023-04-24T20:33:00;98521.84;;;8.56;69.51
76732;BME280;65656;51.130;13.658;2023-04-24T20:37:01;98520.16;;;8.50;69.56
76732;BME280;65656;51.130;13.658;2023-04-24T20:41:03;98522.22;;;8.37;70.18
76732;BME280;65656;51.130;13.658;2023-04-24T20:45:05;98529.84;;;8.35;69.47
76732;BME280;65656;51.130;13.658;2023-04-24T20:49:08;98522.72;;;8.34;69.80
76732;BME280;65656;51.130;13.658;2023-04-24T20:53:10;98517.38;;;8.45;68.79
76732;BME280;65656;51.130;13.658;2023-04-24T20:57:11;98527.25;;;8.51;69.20
76732;BME280;65656;51.130;13.658;2023-04-24T21:01:13;98533.22;;;8.48;68.92
76732;BME280;65656;51.130;13.658;2023-04-24T21:05:16;98522.00;;;8.44;69.75